sensor_id;sensor_type;location;lat;lon;timestamp;P1;durP1;ratioP1;P2;durP2;ratioP2
29934;SDS011;19905;53.370;-6.314;2022-10-31T00:01:37;16.17;;;2.40;;
29934;SDS011;19905;53.370;-6.314;2022-10-31T00:04:08;17.98;;;2.70;;
29934;SDS011;19905;53.370;-6.314;2022-10-31T00:06:36;13.70;;;2.50;;
29934;SDS011;19905;53.370;-6.314;2022-10-31T00:09:05;16.42;;;2.65;;
29934;SDS011;19905;53.370;-6.314;2022-10-31T00:11:34;11.10;;;2.25;;
29934;SDS011;19905;53.370;-6.314;2022-10-31T00:14:02;10.02;;;2.10;;
29934;SDS011;19905;53.370;-6.314;2022-10-31T00:16:31;8.68;;;1.95;;
29934;SDS011;19905;53.370;-6.314;2022-10-31T00:19:01;12.40;;;1.67;;
29934;SDS011;19905;53.370;-6.314;2022-10-31T00:21:33;9.23;;;1.63;;
29934;SDS011;19905;53.370;-6.314;2022-10-31T00:24:02;14.68;;;1.95;;
29934;SDS011;19905;53.370;-6.314;2022-10-31T00:26:32;12.15;;;2.00;;
29934;SDS011;19905;53.370;-6.314;2022-10-31T00:29:00;12.95;;;2.17;;
29934;SDS011;19905;53.370;-6.314;2022-10-31T00:31:29;16.80;;;2.35;;
29934;SDS011;19905;53.370;-6.314;2022-10-31T00:33:58;15.55;;;2.25;;
29934;SDS011;19905;53.370;-6.314;2022-10-31T00:36:29;16.10;;;2.20;;
29934;SDS011;19905;53.370;-6.314;2022-10-31T00:38:59;12.60;;;2.22;;
29934;SDS011;19905;53.370;-6.314;2022-10-31T00:41:28;16.08;;;2.50;;
29934;SDS011;19905;53.370;-6.314;2022-10-31T00:43:57;14.82;;;2.25;;
29934;SDS011;19905;53.370;-6.314;2022-10-31T00:46:26;19.75;;;2.78;;
29934;SDS011;19905;53.370;-6.314;2022-10-31T00:48:55;15.02;;;2.03;;
29934;SDS011;19905;53.370;-6.314;2022-10-31T00:51:24;15.20;;;2.20;;
29934;SDS011;19905;53.370;-6.314;2022-10-31T00:53:52;15.50;;;2.35;;
29934;SDS011;19905;53.370;-6.314;2022-10-31T00:56:23;18.98;;;2.70;;
29934;SDS011;19905;53.370;-6.314;2022-10-31T00:58:53;14.00;;;2.53;;
29934;SDS011;19905;53.370;-6.314;2022-10-31T01:01:21;12.23;;;2.20;;
29934;SDS011;19905;53.370;-6.314;2022-10-31T01:03:50;17.67;;;2.28;;
29934;SDS011;19905;53.370;-6.314;2022-10-31T01:06:19;12.57;;;2.25;;
29934;SDS011;19905;53.370;-6.314;2022-10-31T01:08:48;15.95;;;2.58;;
29934;SDS011;19905;53.370;-6.314;2022-10-31T01:11:17;16.23;;;2.45;;
29934;SDS011;19905;53.370;-6.314;2022-10-31T01:13:49;17.25;;;2.40;;
29934;SDS011;19905;53.370;-6.314;2022-10-31T01:16:21;20.27;;;2.75;;
29934;SDS011;19905;53.370;-6.314;2022-10-31T01:18:50;14.57;;;2.40;;
29934;SDS011;19905;53.370;-6.314;2022-10-31T01:21:21;15.60;;;2.85;;
29934;SDS011;19905;53.370;-6.314;2022-10-31T01:23:52;14.38;;;2.00;;
29934;SDS011;19905;53.370;-6.314;2022-10-31T01:26:22;14.45;;;2.35;;
29934;SDS011;19905;53.370;-6.314;2022-10-31T01:28:55;22.85;;;2.75;;
29934;SDS011;19905;53.370;-6.314;2022-10-31T01:31:26;17.13;;;2.53;;
29934;SDS011;19905;53.370;-6.314;2022-10-31T01:33:56;17.02;;;2.20;;
29934;SDS011;19905;53.370;-6.314;2022-10-31T01:36:27;16.63;;;2.50;;
29934;SDS011;19905;53.370;-6.314;2022-10-31T01:38:57;17.65;;;2.40;;
29934;SDS011;19905;53.370;-6.314;2022-10-31T01:41:29;18.13;;;2.78;;
29934;SDS011;19905;53.370;-6.314;2022-10-31T01:44:02;16.40;;;2.63;;
29934;SDS011;19905;53.370;-6.314;2022-10-31T01:46:32;14.75;;;2.38;;
29934;SDS011;19905;53.370;-6.314;2022-10-31T01:49:05;14.43;;;2.40;;
29934;SDS011;19905;53.370;-6.314;2022-10-31T01:51:41;13.77;;;2.25;;
29934;SDS011;19905;53.370;-6.314;2022-10-31T01:54:16;12.05;;;1.90;;
29934;SDS011;19905;53.370;-6.314;2022-10-31T01:56:50;14.05;;;2.22;;
29934;SDS011;19905;53.370;-6.314;2022-10-31T01:59:23;17.98;;;2.42;;
29934;SDS011;19905;53.370;-6.314;2022-10-31T02:01:57;16.85;;;1.92;;
29934;SDS011;19905;53.370;-6.314;2022-10-31T02:04:27;16.52;;;2.05;;
29934;SDS011;19905;53.370;-6.314;2022-10-31T02:06:58;13.20;;;2.22;;
29934;SDS011;19905;53.370;-6.314;2022-10-31T02:09:30;15.55;;;2.63;;
29934;SDS011;19905;53.370;-6.314;2022-10-31T02:12:02;16.15;;;2.10;;
29934;SDS011;19905;53.370;-6.314;2022-10-31T02:14:33;15.25;;;2.65;;
29934;SDS011;19905;53.370;-6.314;2022-10-31T02:17:03;17.00;;;2.08;;
29934;SDS011;19905;53.370;-6.314;2022-10-31T02:19:33;18.15;;;2.08;;
29934;SDS011;19905;53.370;-6.314;2022-10-31T02:22:09;19.08;;;2.28;;
29934;SDS011;19905;53.370;-6.314;2022-10-31T02:24:45;21.30;;;2.40;;
29934;SDS011;19905;53.370;-6.314;2022-10-31T02:27:39;19.27;;;2.40;;
29934;SDS011;19905;53.370;-6.314;2022-10-31T02:30:25;15.93;;;2.30;;
29934;SDS011;19905;53.370;-6.314;2022-10-31T02:33:10;14.93;;;2.58;;
29934;SDS011;19905;53.370;-6.314;2022-10-31T02:35:52;16.63;;;2.65;;
29934;SDS011;19905;53.370;-6.314;2022-10-31T02:38:31;17.30;;;2.85;;
29934;SDS011;19905;53.370;-6.314;2022-10-31T02:41:12;19.60;;;2.60;;
29934;SDS011;19905;53.370;-6.314;2022-10-31T02:43:49;18.95;;;2.47;;
29934;SDS011;19905;53.370;-6.314;2022-10-31T02:46:28;16.33;;;2.25;;
29934;SDS011;19905;53.370;-6.314;2022-10-31T02:49:06;16.00;;;2.22;;
29934;SDS011;19905;53.370;-6.314;2022-10-31T02:51:38;15.63;;;2.42;;
29934;SDS011;19905;53.370;-6.314;2022-10-31T02:54:16;17.80;;;2.30;;
29934;SDS011;19905;53.370;-6.314;2022-10-31T02:56:50;20.65;;;2.45;;
29934;SDS011;19905;53.370;-6.314;2022-10-31T02:59:23;16.55;;;2.20;;
29934;SDS011;19905;53.370;-6.314;2022-10-31T03:05:13;12.55;;;1.83;;
29934;SDS011;19905;53.370;-6.314;2022-10-31T03:08:06;16.95;;;2.15;;
29934;SDS011;19905;53.370;-6.314;2022-10-31T03:10:43;17.05;;;2.67;;
29934;SDS011;19905;53.370;-6.314;2022-10-31T03:13:21;13.15;;;1.92;;
29934;SDS011;19905;53.370;-6.314;2022-10-31T03:16:01;10.98;;;2.17;;
29934;SDS011;19905;53.370;-6.314;2022-10-31T03:18:38;15.80;;;1.95;;
29934;SDS011;19905;53.370;-6.314;2022-10-31T03:21:11;16.83;;;2.20;;
29934;SDS011;19905;53.370;-6.314;2022-10-31T03:23:44;18.75;;;2.20;;
29934;SDS011;19905;53.370;-6.314;2022-10-31T03:26:15;13.75;;;2.25;;
29934;SDS011;19905;53.370;-6.314;2022-10-31T03:28:48;17.42;;;2.25;;
29934;SDS011;19905;53.370;-6.314;2022-10-31T03:31:22;13.73;;;2.15;;
29934;SDS011;19905;53.370;-6.314;2022-10-31T03:33:58;16.73;;;2.28;;
29934;SDS011;19905;53.370;-6.314;2022-10-31T03:36:30;16.20;;;2.45;;
29934;SDS011;19905;53.370;-6.314;2022-10-31T03:39:04;13.63;;;2.22;;
29934;SDS011;19905;53.370;-6.314;2022-10-31T03:41:37;10.77;;;1.98;;
29934;SDS011;19905;53.370;-6.314;2022-10-31T03:44:08;14.32;;;2.08;;
29934;SDS011;19905;53.370;-6.314;2022-10-31T03:46:41;17.85;;;2.10;;
29934;SDS011;19905;53.370;-6.314;2022-10-31T03:49:11;15.90;;;2.20;;
29934;SDS011;19905;53.370;-6.314;2022-10-31T03:51:43;15.15;;;2.53;;
29934;SDS011;19905;53.370;-6.314;2022-10-31T03:54:19;15.57;;;1.95;;
29934;SDS011;19905;53.370;-6.314;2022-10-31T03:56:53;16.77;;;2.17;;
29934;SDS011;19905;53.370;-6.314;2022-10-31T03:59:26;22.98;;;2.90;;
29934;SDS011;19905;53.370;-6.314;2022-10-31T04:02:01;16.17;;;2.53;;
29934;SDS011;19905;53.370;-6.314;2022-10-31T04:04:34;16.95;;;2.35;;
29934;SDS011;19905;53.370;-6.314;2022-10-31T04:07:07;12.80;;;2.30;;
29934;SDS011;19905;53.370;-6.314;2022-10-31T04:09:38;21.50;;;2.40;;
29934;SDS011;19905;53.370;-6.314;2022-10-31T04:12:11;16.52;;;2.40;;
29934;SDS011;19905;53.370;-6.314;2022-10-31T04:14:42;14.65;;;1.77;;
29934;SDS011;19905;53.370;-6.314;2022-10-31T04:17:15;18.60;;;2.47;;
29934;SDS011;19905;53.370;-6.314;2022-10-31T04:19:46;13.98;;;1.95;;
29934;SDS011;19905;53.370;-6.314;2022-10-31T04:22:17;16.17;;;2.45;;
29934;SDS011;19905;53.370;-6.314;2022-10-31T04:24:46;18.38;;;2.60;;
29934;SDS011;19905;53.370;-6.314;2022-10-31T04:27:14;18.65;;;2.55;;
29934;SDS011;19905;53.370;-6.314;2022-10-31T04:29:43;13.38;;;1.95;;
29934;SDS011;19905;53.370;-6.314;2022-10-31T04:32:16;15.13;;;2.10;;
29934;SDS011;19905;53.370;-6.314;2022-10-31T04:34:46;14.95;;;2.03;;
29934;SDS011;19905;53.370;-6.314;2022-10-31T04:37:15;14.57;;;2.22;;
29934;SDS011;19905;53.370;-6.314;2022-10-31T04:39:45;15.50;;;2.13;;
29934;SDS011;19905;53.370;-6.314;2022-10-31T04:42:13;15.35;;;2.00;;
29934;SDS011;19905;53.370;-6.314;2022-10-31T04:44:42;13.25;;;1.70;;
29934;SDS011;19905;53.370;-6.314;2022-10-31T04:47:10;14.55;;;1.95;;
29934;SDS011;19905;53.370;-6.314;2022-10-31T04:49:39;12.90;;;2.20;;
29934;SDS011;19905;53.370;-6.314;2022-10-31T04:52:08;15.40;;;2.05;;
29934;SDS011;19905;53.370;-6.314;2022-10-31T04:54:38;12.23;;;1.92;;
29934;SDS011;19905;53.370;-6.314;2022-10-31T04:57:06;14.27;;;2.25;;
29934;SDS011;19905;53.370;-6.314;2022-10-31T04:59:35;16.85;;;2.20;;
29934;SDS011;19905;53.370;-6.314;2022-10-31T05:02:04;17.23;;;2.15;;
29934;SDS011;19905;53.370;-6.314;2022-10-31T05:04:33;13.02;;;2.00;;
29934;SDS011;19905;53.370;-6.314;2022-10-31T05:07:02;12.65;;;1.95;;
29934;SDS011;19905;53.370;-6.314;2022-10-31T05:09:31;13.20;;;2.25;;
29934;SDS011;19905;53.370;-6.314;2022-10-31T05:12:01;14.15;;;2.00;;
29934;SDS011;19905;53.370;-6.314;2022-10-31T05:14:29;15.57;;;2.17;;
29934;SDS011;19905;53.370;-6.314;2022-10-31T05:16:58;12.32;;;1.90;;
29934;SDS011;19905;53.370;-6.314;2022-10-31T05:19:26;12.55;;;2.17;;
29934;SDS011;19905;53.370;-6.314;2022-10-31T05:21:55;13.90;;;2.42;;
29934;SDS011;19905;53.370;-6.314;2022-10-31T05:24:23;12.18;;;2.00;;
29934;SDS011;19905;53.370;-6.314;2022-10-31T05:26:52;13.88;;;2.20;;
29934;SDS011;19905;53.370;-6.314;2022-10-31T05:29:22;19.63;;;2.38;;
29934;SDS011;19905;53.370;-6.314;2022-10-31T05:31:50;11.05;;;1.80;;
29934;SDS011;19905;53.370;-6.314;2022-10-31T05:34:19;17.48;;;2.97;;
29934;SDS011;19905;53.370;-6.314;2022-10-31T05:36:48;17.25;;;2.63;;
29934;SDS011;19905;53.370;-6.314;2022-10-31T05:39:16;20.60;;;2.60;;
29934;SDS011;19905;53.370;-6.314;2022-10-31T05:41:45;17.75;;;2.20;;
29934;SDS011;19905;53.370;-6.314;2022-10-31T05:44:14;16.45;;;2.65;;
29934;SDS011;19905;53.370;-6.314;2022-10-31T05:46:45;16.17;;;2.42;;
29934;SDS011;19905;53.370;-6.314;2022-10-31T05:49:14;13.60;;;2.03;;
29934;SDS011;19905;53.370;-6.314;2022-10-31T05:51:45;21.17;;;2.30;;
29934;SDS011;19905;53.370;-6.314;2022-10-31T05:54:14;14.80;;;2.53;;
29934;SDS011;19905;53.370;-6.314;2022-10-31T05:56:42;18.83;;;2.17;;
29934;SDS011;19905;53.370;-6.314;2022-10-31T05:59:11;11.23;;;1.90;;
29934;SDS011;19905;53.370;-6.314;2022-10-31T06:01:39;17.27;;;2.13;;
29934;SDS011;19905;53.370;-6.314;2022-10-31T06:04:09;10.77;;;1.73;;
29934;SDS011;19905;53.370;-6.314;2022-10-31T06:06:38;13.32;;;1.75;;
29934;SDS011;19905;53.370;-6.314;2022-10-31T06:09:07;12.68;;;1.73;;
29934;SDS011;19905;53.370;-6.314;2022-10-31T06:11:35;9.80;;;1.75;;
29934;SDS011;19905;53.370;-6.314;2022-10-31T06:14:04;12.38;;;1.73;;
29934;SDS011;19905;53.370;-6.314;2022-10-31T06:16:33;10.13;;;1.70;;
29934;SDS011;19905;53.370;-6.314;2022-10-31T06:19:02;15.05;;;1.98;;
29934;SDS011;19905;53.370;-6.314;2022-10-31T06:21:32;10.32;;;1.77;;
29934;SDS011;19905;53.370;-6.314;2022-10-31T06:24:01;11.27;;;1.75;;
29934;SDS011;19905;53.370;-6.314;2022-10-31T06:26:29;10.95;;;1.55;;
29934;SDS011;19905;53.370;-6.314;2022-10-31T06:28:58;12.98;;;1.60;;
29934;SDS011;19905;53.370;-6.314;2022-10-31T06:31:29;12.93;;;1.67;;
29934;SDS011;19905;53.370;-6.314;2022-10-31T06:33:58;9.80;;;1.33;;
29934;SDS011;19905;53.370;-6.314;2022-10-31T06:36:26;11.30;;;1.67;;
29934;SDS011;19905;53.370;-6.314;2022-10-31T06:38:57;10.02;;;1.52;;
29934;SDS011;19905;53.370;-6.314;2022-10-31T06:41:26;12.88;;;1.83;;
29934;SDS011;19905;53.370;-6.314;2022-10-31T06:43:56;10.65;;;1.70;;
29934;SDS011;19905;53.370;-6.314;2022-10-31T06:46:31;12.48;;;2.20;;
29934;SDS011;19905;53.370;-6.314;2022-10-31T06:49:01;14.13;;;1.98;;
29934;SDS011;19905;53.370;-6.314;2022-10-31T06:51:32;14.73;;;2.15;;
29934;SDS011;19905;53.370;-6.314;2022-10-31T06:54:03;13.50;;;1.98;;
29934;SDS011;19905;53.370;-6.314;2022-10-31T06:56:34;13.18;;;2.75;;
29934;SDS011;19905;53.370;-6.314;2022-10-31T06:59:03;13.05;;;1.95;;
29934;SDS011;19905;53.370;-6.314;2022-10-31T07:01:33;13.57;;;2.20;;
29934;SDS011;19905;53.370;-6.314;2022-10-31T07:04:02;11.38;;;2.17;;
29934;SDS011;19905;53.370;-6.314;2022-10-31T07:06:32;13.90;;;1.88;;
29934;SDS011;19905;53.370;-6.314;2022-10-31T07:09:03;15.88;;;2.03;;
29934;SDS011;19905;53.370;-6.314;2022-10-31T07:11:36;15.93;;;2.28;;
29934;SDS011;19905;53.370;-6.314;2022-10-31T07:14:05;18.27;;;2.63;;
29934;SDS011;19905;53.370;-6.314;2022-10-31T07:16:35;18.67;;;2.28;;
29934;SDS011;19905;53.370;-6.314;2022-10-31T07:19:05;10.93;;;1.77;;
29934;SDS011;19905;53.370;-6.314;2022-10-31T07:21:34;13.10;;;1.73;;
29934;SDS011;19905;53.370;-6.314;2022-10-31T07:24:05;11.50;;;2.13;;
29934;SDS011;19905;53.370;-6.314;2022-10-31T07:26:34;11.13;;;1.50;;
29934;SDS011;19905;53.370;-6.314;2022-10-31T07:29:04;9.70;;;1.60;;
29934;SDS011;19905;53.370;-6.314;2022-10-31T07:31:40;11.80;;;1.75;;
29934;SDS011;19905;53.370;-6.314;2022-10-31T07:34:11;14.15;;;1.88;;
29934;SDS011;19905;53.370;-6.314;2022-10-31T07:36:41;12.38;;;2.00;;
29934;SDS011;19905;53.370;-6.314;2022-10-31T07:39:14;12.05;;;1.80;;
29934;SDS011;19905;53.370;-6.314;2022-10-31T07:41:42;13.98;;;2.13;;
29934;SDS011;19905;53.370;-6.314;2022-10-31T07:44:12;14.15;;;2.00;;
29934;SDS011;19905;53.370;-6.314;2022-10-31T07:46:50;9.55;;;1.65;;
29934;SDS011;19905;53.370;-6.314;2022-10-31T07:51:59;17.15;;;2.20;;
29934;SDS011;19905;53.370;-6.314;2022-10-31T07:54:31;16.58;;;2.17;;
29934;SDS011;19905;53.370;-6.314;2022-10-31T07:57:02;12.98;;;2.08;;
29934;SDS011;19905;53.370;-6.314;2022-10-31T07:59:31;13.43;;;2.10;;
29934;SDS011;19905;53.370;-6.314;2022-10-31T08:02:02;15.07;;;1.80;;
29934;SDS011;19905;53.370;-6.314;2022-10-31T08:04:33;16.85;;;2.05;;
29934;SDS011;19905;53.370;-6.314;2022-10-31T08:07:03;14.35;;;2.42;;
29934;SDS011;19905;53.370;-6.314;2022-10-31T08:09:34;15.50;;;1.90;;
29934;SDS011;19905;53.370;-6.314;2022-10-31T08:12:12;13.60;;;1.83;;
29934;SDS011;19905;53.370;-6.314;2022-10-31T08:14:40;14.68;;;2.25;;
29934;SDS011;19905;53.370;-6.314;2022-10-31T08:17:09;10.35;;;1.95;;
29934;SDS011;19905;53.370;-6.314;2022-10-31T08:19:38;14.70;;;2.00;;
29934;SDS011;19905;53.370;-6.314;2022-10-31T08:22:08;14.82;;;2.35;;
29934;SDS011;19905;53.370;-6.314;2022-10-31T08:24:49;17.80;;;2.15;;
29934;SDS011;19905;53.370;-6.314;2022-10-31T08:27:19;15.05;;;2.28;;
29934;SDS011;19905;53.370;-6.314;2022-10-31T08:29:48;16.58;;;2.30;;
29934;SDS011;19905;53.370;-6.314;2022-10-31T08:32:17;14.32;;;2.38;;
29934;SDS011;19905;53.370;-6.314;2022-10-31T08:34:46;14.90;;;2.85;;
29934;SDS011;19905;53.370;-6.314;2022-10-31T08:37:15;15.15;;;2.53;;
29934;SDS011;19905;53.370;-6.314;2022-10-31T08:39:49;16.85;;;2.53;;
29934;SDS011;19905;53.370;-6.314;2022-10-31T08:42:18;22.85;;;3.13;;
29934;SDS011;19905;53.370;-6.314;2022-10-31T08:44:47;18.98;;;2.53;;
29934;SDS011;19905;53.370;-6.314;2022-10-31T08:47:16;19.10;;;2.58;;
29934;SDS011;19905;53.370;-6.314;2022-10-31T08:49:44;17.15;;;2.83;;
29934;SDS011;19905;53.370;-6.314;2022-10-31T08:52:14;17.52;;;2.30;;
29934;SDS011;19905;53.370;-6.314;2022-10-31T08:54:43;19.40;;;2.58;;
29934;SDS011;19905;53.370;-6.314;2022-10-31T08:57:13;21.55;;;3.17;;
29934;SDS011;19905;53.370;-6.314;2022-10-31T08:59:43;14.80;;;1.80;;
29934;SDS011;19905;53.370;-6.314;2022-10-31T09:02:13;17.75;;;2.45;;
29934;SDS011;19905;53.370;-6.314;2022-10-31T09:04:42;23.17;;;3.47;;
29934;SDS011;19905;53.370;-6.314;2022-10-31T09:07:11;16.02;;;2.22;;
29934;SDS011;19905;53.370;-6.314;2022-10-31T09:09:48;16.63;;;2.22;;
29934;SDS011;19905;53.370;-6.314;2022-10-31T09:12:18;19.40;;;2.95;;
29934;SDS011;19905;53.370;-6.314;2022-10-31T09:14:49;15.25;;;2.47;;
29934;SDS011;19905;53.370;-6.314;2022-10-31T09:19:55;16.00;;;2.42;;
29934;SDS011;19905;53.370;-6.314;2022-10-31T09:22:30;14.80;;;2.38;;
29934;SDS011;19905;53.370;-6.314;2022-10-31T09:24:58;14.15;;;2.42;;
29934;SDS011;19905;53.370;-6.314;2022-10-31T09:27:29;17.50;;;2.50;;
29934;SDS011;19905;53.370;-6.314;2022-10-31T09:30:00;18.15;;;2.45;;
29934;SDS011;19905;53.370;-6.314;2022-10-31T09:35:00;12.35;;;1.98;;
29934;SDS011;19905;53.370;-6.314;2022-10-31T09:37:30;11.20;;;2.22;;
29934;SDS011;19905;53.370;-6.314;2022-10-31T09:40:00;16.42;;;2.20;;
29934;SDS011;19905;53.370;-6.314;2022-10-31T09:42:37;14.55;;;2.30;;
29934;SDS011;19905;53.370;-6.314;2022-10-31T09:45:16;13.80;;;2.13;;
29934;SDS011;19905;53.370;-6.314;2022-10-31T09:47:59;19.73;;;2.30;;
29934;SDS011;19905;53.370;-6.314;2022-10-31T09:50:44;15.50;;;2.50;;
29934;SDS011;19905;53.370;-6.314;2022-10-31T09:53:20;15.52;;;2.00;;
29934;SDS011;19905;53.370;-6.314;2022-10-31T09:55:58;12.45;;;2.05;;
29934;SDS011;19905;53.370;-6.314;2022-10-31T09:58:32;13.02;;;2.10;;
29934;SDS011;19905;53.370;-6.314;2022-10-31T10:01:09;13.13;;;2.33;;
29934;SDS011;19905;53.370;-6.314;2022-10-31T10:03:50;14.95;;;2.42;;
29934;SDS011;19905;53.370;-6.314;2022-10-31T10:06:23;17.60;;;2.30;;
29934;SDS011;19905;53.370;-6.314;2022-10-31T10:57:31;13.13;;;2.42;;
29934;SDS011;19905;53.370;-6.314;2022-10-31T11:12:17;17.48;;;2.25;;
29934;SDS011;19905;53.370;-6.314;2022-10-31T11:14:53;13.95;;;2.17;;
29934;SDS011;19905;53.370;-6.314;2022-10-31T11:17:27;18.60;;;2.40;;
29934;SDS011;19905;53.370;-6.314;2022-10-31T11:19:59;14.65;;;2.35;;
29934;SDS011;19905;53.370;-6.314;2022-10-31T11:22:30;19.05;;;2.35;;
29934;SDS011;19905;53.370;-6.314;2022-10-31T11:24:59;12.23;;;2.13;;
29934;SDS011;19905;53.370;-6.314;2022-10-31T11:27:27;16.23;;;2.47;;
29934;SDS011;19905;53.370;-6.314;2022-10-31T11:30:05;12.15;;;2.33;;
29934;SDS011;19905;53.370;-6.314;2022-10-31T11:32:35;14.18;;;2.33;;
29934;SDS011;19905;53.370;-6.314;2022-10-31T11:35:09;15.55;;;2.28;;
29934;SDS011;19905;53.370;-6.314;2022-10-31T11:37:45;13.77;;;2.20;;
29934;SDS011;19905;53.370;-6.314;2022-10-31T11:40:17;5.22;;;1.48;;
29934;SDS011;19905;53.370;-6.314;2022-10-31T11:42:47;5.25;;;1.40;;
29934;SDS011;19905;53.370;-6.314;2022-10-31T11:45:28;8.48;;;1.48;;
29934;SDS011;19905;53.370;-6.314;2022-10-31T11:48:01;7.90;;;1.60;;
29934;SDS011;19905;53.370;-6.314;2022-10-31T11:50:34;8.05;;;1.50;;
29934;SDS011;19905;53.370;-6.314;2022-10-31T11:53:11;10.30;;;1.67;;
29934;SDS011;19905;53.370;-6.314;2022-10-31T11:55:42;11.32;;;1.80;;
29934;SDS011;19905;53.370;-6.314;2022-10-31T11:58:20;10.50;;;1.63;;
29934;SDS011;19905;53.370;-6.314;2022-10-31T12:00:57;10.00;;;1.80;;
29934;SDS011;19905;53.370;-6.314;2022-10-31T12:03:28;8.23;;;1.73;;
29934;SDS011;19905;53.370;-6.314;2022-10-31T12:06:07;8.90;;;1.73;;
29934;SDS011;19905;53.370;-6.314;2022-10-31T12:08:39;8.23;;;1.70;;
29934;SDS011;19905;53.370;-6.314;2022-10-31T12:11:11;11.88;;;1.83;;
29934;SDS011;19905;53.370;-6.314;2022-10-31T12:13:59;8.35;;;1.98;;
29934;SDS011;19905;53.370;-6.314;2022-10-31T12:16:39;13.45;;;2.00;;
29934;SDS011;19905;53.370;-6.314;2022-10-31T12:34:59;11.25;;;2.40;;
29934;SDS011;19905;53.370;-6.314;2022-10-31T12:37:45;9.77;;;1.83;;
29934;SDS011;19905;53.370;-6.314;2022-10-31T12:40:26;11.30;;;2.17;;
29934;SDS011;19905;53.370;-6.314;2022-10-31T12:43:07;12.80;;;2.50;;
29934;SDS011;19905;53.370;-6.314;2022-10-31T12:45:52;16.13;;;2.53;;
29934;SDS011;19905;53.370;-6.314;2022-10-31T12:51:40;19.23;;;2.53;;
29934;SDS011;19905;53.370;-6.314;2022-10-31T12:54:22;14.13;;;2.20;;
29934;SDS011;19905;53.370;-6.314;2022-10-31T12:57:06;15.88;;;2.90;;
29934;SDS011;19905;53.370;-6.314;2022-10-31T12:59:40;15.45;;;2.58;;
29934;SDS011;19905;53.370;-6.314;2022-10-31T13:02:20;16.63;;;2.70;;
29934;SDS011;19905;53.370;-6.314;2022-10-31T13:04:54;16.48;;;2.50;;
29934;SDS011;19905;53.370;-6.314;2022-10-31T13:07:30;16.60;;;2.72;;
29934;SDS011;19905;53.370;-6.314;2022-10-31T13:10:06;18.75;;;2.83;;
29934;SDS011;19905;53.370;-6.314;2022-10-31T13:12:42;19.42;;;3.00;;
29934;SDS011;19905;53.370;-6.314;2022-10-31T13:15:16;15.90;;;2.58;;
29934;SDS011;19905;53.370;-6.314;2022-10-31T13:17:50;14.15;;;2.40;;
29934;SDS011;19905;53.370;-6.314;2022-10-31T13:20:37;16.63;;;2.97;;
29934;SDS011;19905;53.370;-6.314;2022-10-31T13:23:14;18.40;;;2.75;;
29934;SDS011;19905;53.370;-6.314;2022-10-31T13:26:12;15.80;;;2.63;;
29934;SDS011;19905;53.370;-6.314;2022-10-31T13:28:46;19.58;;;2.85;;
29934;SDS011;19905;53.370;-6.314;2022-10-31T13:31:20;15.50;;;2.75;;
29934;SDS011;19905;53.370;-6.314;2022-10-31T13:33:51;19.92;;;3.38;;
29934;SDS011;19905;53.370;-6.314;2022-10-31T13:36:28;15.10;;;2.70;;
29934;SDS011;19905;53.370;-6.314;2022-10-31T13:39:06;17.95;;;3.13;;
29934;SDS011;19905;53.370;-6.314;2022-10-31T13:41:54;16.73;;;2.85;;
29934;SDS011;19905;53.370;-6.314;2022-10-31T13:44:32;20.05;;;3.22;;
29934;SDS011;19905;53.370;-6.314;2022-10-31T13:47:20;19.00;;;2.60;;
29934;SDS011;19905;53.370;-6.314;2022-10-31T13:49:51;21.83;;;3.33;;
29934;SDS011;19905;53.370;-6.314;2022-10-31T13:52:24;19.45;;;2.75;;
29934;SDS011;19905;53.370;-6.314;2022-10-31T13:54:55;25.80;;;3.63;;
29934;SDS011;19905;53.370;-6.314;2022-10-31T13:57:30;22.45;;;2.85;;
29934;SDS011;19905;53.370;-6.314;2022-10-31T14:02:51;20.40;;;3.10;;
29934;SDS011;19905;53.370;-6.314;2022-10-31T14:05:28;17.65;;;2.80;;
29934;SDS011;19905;53.370;-6.314;2022-10-31T14:08:02;13.35;;;2.40;;
29934;SDS011;19905;53.370;-6.314;2022-10-31T14:10:35;18.30;;;3.05;;
29934;SDS011;19905;53.370;-6.314;2022-10-31T14:13:08;20.63;;;3.08;;
29934;SDS011;19905;53.370;-6.314;2022-10-31T14:15:52;14.98;;;3.05;;
29934;SDS011;19905;53.370;-6.314;2022-10-31T14:18:32;16.67;;;3.22;;
29934;SDS011;19905;53.370;-6.314;2022-10-31T14:21:12;20.95;;;3.20;;
29934;SDS011;19905;53.370;-6.314;2022-10-31T14:23:43;18.42;;;3.22;;
29934;SDS011;19905;53.370;-6.314;2022-10-31T14:26:29;14.30;;;3.13;;
29934;SDS011;19905;53.370;-6.314;2022-10-31T14:29:02;16.98;;;2.88;;
29934;SDS011;19905;53.370;-6.314;2022-10-31T14:31:53;17.23;;;2.25;;
29934;SDS011;19905;53.370;-6.314;2022-10-31T14:34:26;14.30;;;2.60;;
29934;SDS011;19905;53.370;-6.314;2022-10-31T14:37:02;16.38;;;2.50;;
29934;SDS011;19905;53.370;-6.314;2022-10-31T14:42:34;17.48;;;2.55;;
29934;SDS011;19905;53.370;-6.314;2022-10-31T14:45:25;17.15;;;2.60;;
29934;SDS011;19905;53.370;-6.314;2022-10-31T14:47:58;18.58;;;2.55;;
29934;SDS011;19905;53.370;-6.314;2022-10-31T14:50:40;18.02;;;2.80;;
29934;SDS011;19905;53.370;-6.314;2022-10-31T14:53:16;16.80;;;2.78;;
29934;SDS011;19905;53.370;-6.314;2022-10-31T14:55:49;16.10;;;2.28;;
29934;SDS011;19905;53.370;-6.314;2022-10-31T14:58:23;18.25;;;2.38;;
29934;SDS011;19905;53.370;-6.314;2022-10-31T15:01:04;15.85;;;2.20;;
29934;SDS011;19905;53.370;-6.314;2022-10-31T15:03:35;15.95;;;2.75;;
29934;SDS011;19905;53.370;-6.314;2022-10-31T15:06:19;20.67;;;3.25;;
29934;SDS011;19905;53.370;-6.314;2022-10-31T15:08:51;16.42;;;2.90;;
29934;SDS011;19905;53.370;-6.314;2022-10-31T15:11:22;16.63;;;2.80;;
29934;SDS011;19905;53.370;-6.314;2022-10-31T15:13:54;15.70;;;2.65;;
29934;SDS011;19905;53.370;-6.314;2022-10-31T15:16:26;12.73;;;2.30;;
29934;SDS011;19905;53.370;-6.314;2022-10-31T15:19:00;12.75;;;2.17;;
29934;SDS011;19905;53.370;-6.314;2022-10-31T15:21:32;11.68;;;2.33;;
29934;SDS011;19905;53.370;-6.314;2022-10-31T15:24:02;13.55;;;2.40;;
29934;SDS011;19905;53.370;-6.314;2022-10-31T15:26:32;14.43;;;2.67;;
29934;SDS011;19905;53.370;-6.314;2022-10-31T15:29:12;12.77;;;2.80;;
29934;SDS011;19905;53.370;-6.314;2022-10-31T15:31:48;12.48;;;2.63;;
29934;SDS011;19905;53.370;-6.314;2022-10-31T15:34:20;11.55;;;1.90;;
29934;SDS011;19905;53.370;-6.314;2022-10-31T15:36:51;7.65;;;1.95;;
29934;SDS011;19905;53.370;-6.314;2022-10-31T15:39:19;9.40;;;2.45;;
29934;SDS011;19905;53.370;-6.314;2022-10-31T15:41:51;10.73;;;2.22;;
29934;SDS011;19905;53.370;-6.314;2022-10-31T15:44:24;9.75;;;2.42;;
29934;SDS011;19905;53.370;-6.314;2022-10-31T15:46:56;12.25;;;2.88;;
29934;SDS011;19905;53.370;-6.314;2022-10-31T15:49:27;11.82;;;2.40;;
29934;SDS011;19905;53.370;-6.314;2022-10-31T15:52:09;12.75;;;2.85;;
29934;SDS011;19905;53.370;-6.314;2022-10-31T15:54:44;14.57;;;3.00;;
29934;SDS011;19905;53.370;-6.314;2022-10-31T15:57:16;15.57;;;2.45;;
29934;SDS011;19905;53.370;-6.314;2022-10-31T15:59:47;18.02;;;3.85;;
29934;SDS011;19905;53.370;-6.314;2022-10-31T16:02:18;11.90;;;3.55;;
29934;SDS011;19905;53.370;-6.314;2022-10-31T16:04:50;14.57;;;3.75;;
29934;SDS011;19905;53.370;-6.314;2022-10-31T16:07:21;14.43;;;4.00;;
29934;SDS011;19905;53.370;-6.314;2022-10-31T16:09:51;15.32;;;3.63;;
29934;SDS011;19905;53.370;-6.314;2022-10-31T16:12:22;16.38;;;4.45;;
29934;SDS011;19905;53.370;-6.314;2022-10-31T16:14:55;20.70;;;4.40;;
29934;SDS011;19905;53.370;-6.314;2022-10-31T16:17:24;18.05;;;4.45;;
29934;SDS011;19905;53.370;-6.314;2022-10-31T16:19:56;17.30;;;4.75;;
29934;SDS011;19905;53.370;-6.314;2022-10-31T16:22:29;16.50;;;4.40;;
29934;SDS011;19905;53.370;-6.314;2022-10-31T16:25:01;16.88;;;4.53;;
29934;SDS011;19905;53.370;-6.314;2022-10-31T16:27:34;15.40;;;4.55;;
29934;SDS011;19905;53.370;-6.314;2022-10-31T16:33:04;14.32;;;4.30;;
29934;SDS011;19905;53.370;-6.314;2022-10-31T16:35:47;14.57;;;3.85;;